Dukedom, Tennessee
Current Conditions -  °F | °C
As of 1:15 PM on Friday 21 Nov 2014 (Local Time) from KUCY Reporting Station
Overcast Overcast  
Wind Chill: 41°   Ceiling: 2900
Heat Index: 45°   Visibility: 10mi
Dew Point: 25°   Wind: 7mph
Humidity: 46%   Direction: 110°ESE
Pressure: 30.33"   Gusts: NA
Location:  36.5°N, 88.71°W
Report Text: KUCY 211915Z AUTO 11006KT 10SM BKN029 OVC034 07/M04 A3033 RMK
Loading
Personal Weather Stations






























Interactive Weather Map New forecast layout! Learn more

10-Day Weather Forecast

Advertisements
Track Severe Weather on mobile